Time;durP1;ratioP1;P1;durP2;ratioP2;P2;SDS_P1;SDS_P2;PMS_P1;PMS_P2;Temp;Humidity;BMP_temperature;BMP_pressure;BME280_temperature;BME280_humidity;BME280_pressure;Samples;Min_cycle;Max_cycle;Signal;HPM_P1;HPM_P2
2022/03/07 00:01:57;;;;;;;4.30;3.50;;;4.90;38.10;;;;;;5025412;28;20471;-84
2022/03/07 00:04:26;;;;;;;4.53;4.13;;;5.00;38.40;;;;;;5064898;28;20778;-83
2022/03/07 00:06:52;;;;;;;6.60;3.53;;;5.30;37.90;;;;;;5047028;28;20941;-84
2022/03/07 00:09:19;;;;;;;11.37;3.80;;;5.30;37.40;;;;;;5064550;28;20456;-84
2022/03/07 00:11:46;;;;;;;5.00;2.63;;;5.00;37.70;;;;;;5061930;28;21007;-84
2022/03/07 00:14:13;;;;;;;4.23;2.90;;;4.90;38.10;;;;;;5063179;28;20958;-84
2022/03/07 00:16:40;;;;;;;3.57;2.80;;;4.80;37.90;;;;;;5051376;28;20459;-83
2022/03/07 00:19:07;;;;;;;3.23;2.67;;;4.80;37.90;;;;;;5082198;28;20983;-85
2022/03/07 00:21:36;;;;;;;4.00;2.20;;;4.60;37.80;;;;;;5082252;28;20479;-85
2022/03/07 00:24:03;;;;;;;4.40;3.07;;;4.50;37.70;;;;;;5046798;28;20819;-83
2022/03/07 00:26:30;;;;;;;5.13;3.60;;;4.60;38.10;;;;;;5085299;28;20463;-84
2022/03/07 00:28:57;;;;;;;3.80;3.03;;;4.80;37.70;;;;;;5063485;28;20475;-83
2022/03/07 00:31:24;;;;;;;4.47;3.27;;;4.90;36.70;;;;;;5064415;28;20486;-85
2022/03/07 00:33:51;;;;;;;3.87;3.47;;;4.90;36.50;;;;;;5061556;28;20450;-84
2022/03/07 00:36:19;;;;;;;5.40;3.13;;;5.20;36.80;;;;;;5046771;28;21017;-85
2022/03/07 00:38:49;;;;;;;3.33;3.07;;;5.30;36.20;;;;;;5083450;28;20475;-85
2022/03/07 00:41:16;;;;;;;6.43;3.57;;;5.40;35.90;;;;;;5047452;28;21002;-84
2022/03/07 00:43:44;;;;;;;3.50;3.20;;;5.30;35.70;;;;;;5078887;28;20446;-85
2022/03/07 00:46:11;;;;;;;3.40;3.10;;;5.50;35.60;;;;;;5046488;28;20455;-83
2022/03/07 00:48:38;;;;;;;4.90;3.30;;;5.70;35.70;;;;;;5046802;28;20456;-84
2022/03/07 00:51:05;;;;;;;6.77;4.07;;;5.70;35.10;;;;;;5030117;28;20486;-83
2022/03/07 00:53:32;;;;;;;4.67;3.37;;;5.80;35.10;;;;;;5047019;28;20677;-85
2022/03/07 00:56:00;;;;;;;7.60;3.70;;;5.60;34.50;;;;;;5029283;28;20448;-85
2022/03/07 00:58:27;;;;;;;3.83;3.43;;;5.50;34.60;;;;;;5020368;28;20993;-85
2022/03/07 01:00:54;;;;;;;5.90;4.33;;;5.50;35.10;;;;;;5045768;28;20989;-84
2022/03/07 01:03:22;;;;;;;4.50;3.70;;;5.40;34.70;;;;;;5063761;28;20486;-84
2022/03/07 01:05:49;;;;;;;5.60;4.50;;;5.40;34.50;;;;;;5081679;28;20833;-84
2022/03/07 01:08:16;;;;;;;11.13;3.90;;;5.40;35.00;;;;;;5032121;28;20447;-84
2022/03/07 01:10:44;;;;;;;5.60;3.30;;;5.60;34.60;;;;;;5062408;28;20848;-83
2022/03/07 01:13:12;;;;;;;4.20;3.50;;;5.40;34.00;;;;;;5066107;28;21065;-84
2022/03/07 01:15:39;;;;;;;9.60;4.73;;;5.40;34.70;;;;;;5047400;28;20463;-82
2022/03/07 01:18:06;;;;;;;5.03;4.20;;;5.60;34.30;;;;;;5068212;28;20954;-83
2022/03/07 01:20:34;;;;;;;6.30;4.27;;;5.20;34.20;;;;;;5068227;28;20705;-84
2022/03/07 01:23:01;;;;;;;8.40;4.00;;;5.20;35.20;;;;;;5051511;28;20462;-83
2022/03/07 01:25:29;;;;;;;5.13;3.87;;;5.00;34.70;;;;;;5069185;28;20851;-84
2022/03/07 01:27:56;;;;;;;6.27;5.40;;;4.90;35.00;;;;;;5039840;28;20455;-83
2022/03/07 01:30:24;;;;;;;9.77;5.60;;;5.30;35.50;;;;;;5070105;28;20466;-84
2022/03/07 01:32:52;;;;;;;7.80;4.20;;;5.50;35.10;;;;;;5049252;28;20504;-84
2022/03/07 01:35:19;;;;;;;5.80;4.50;;;5.60;34.70;;;;;;5069276;28;21003;-84
2022/03/07 01:37:47;;;;;;;9.23;4.83;;;5.60;34.00;;;;;;5036790;28;20466;-84
2022/03/07 01:40:14;;;;;;;8.97;5.40;;;5.50;33.90;;;;;;5037250;28;20479;-83
2022/03/07 01:42:41;;;;;;;8.07;4.80;;;5.50;34.40;;;;;;5050164;28;20451;-82
2022/03/07 01:45:10;;;;;;;4.80;4.30;;;5.60;34.80;;;;;;5057077;28;20463;-84
2022/03/07 01:47:39;;;;;;;8.57;5.17;;;5.40;34.30;;;;;;5067808;28;20459;-84
2022/03/07 01:50:09;;;;;;;8.33;5.03;;;5.60;34.80;;;;;;5043024;28;20483;-84
2022/03/07 01:52:39;;;;;;;9.53;5.80;;;5.70;34.40;;;;;;5058233;28;20898;-85
2022/03/07 01:55:09;;;;;;;10.80;5.93;;;5.60;34.10;;;;;;5053378;28;20549;-85
2022/03/07 01:57:42;;;;;;;9.50;5.87;;;5.30;34.10;;;;;;5050381;28;20570;-82
2022/03/07 02:00:14;;;;;;;9.47;5.10;;;5.20;34.50;;;;;;5050316;28;20475;-85
2022/03/07 02:02:42;;;;;;;10.80;6.40;;;5.30;34.70;;;;;;5042194;28;20450;-83
2022/03/07 02:05:13;;;;;;;10.17;5.50;;;5.50;34.40;;;;;;5067550;28;20450;-85
2022/03/07 02:07:41;;;;;;;8.10;5.80;;;5.20;34.00;;;;;;5066603;28;20463;-82
2022/03/07 02:10:11;;;;;;;7.60;4.87;;;5.20;34.70;;;;;;5050952;28;20504;-85
2022/03/07 02:12:40;;;;;;;7.73;5.33;;;5.40;34.50;;;;;;5050342;28;20673;-83
2022/03/07 02:15:09;;;;;;;16.47;6.47;;;5.50;34.50;;;;;;5051738;28;20451;-85
2022/03/07 02:17:38;;;;;;;9.73;6.17;;;5.60;34.20;;;;;;5066383;28;20505;-84
2022/03/07 02:20:08;;;;;;;6.43;5.80;;;5.70;34.40;;;;;;5067024;28;20487;-85
2022/03/07 02:22:36;;;;;;;6.80;4.90;;;5.80;34.30;;;;;;5068124;28;20481;-85
2022/03/07 02:25:03;;;;;;;9.23;5.30;;;5.90;34.80;;;;;;5048238;28;20459;-85
2022/03/07 02:27:35;;;;;;;7.00;4.87;;;6.00;34.20;;;;;;5067195;28;20583;-84
2022/03/07 02:30:06;;;;;;;8.43;5.83;;;6.00;33.80;;;;;;5047902;28;20921;-84
2022/03/07 02:32:35;;;;;;;9.63;6.20;;;5.90;33.60;;;;;;5068196;28;20455;-84
2022/03/07 02:35:03;;;;;;;9.47;5.37;;;5.80;34.40;;;;;;5064524;28;20491;-84
2022/03/07 02:37:30;;;;;;;8.00;5.90;;;5.90;34.40;;;;;;5048419;28;20467;-85
2022/03/07 02:39:58;;;;;;;11.60;6.57;;;6.00;34.00;;;;;;5049746;28;20471;-83
2022/03/07 02:42:26;;;;;;;14.30;6.10;;;5.90;33.70;;;;;;5066552;28;20939;-84
2022/03/07 02:44:54;;;;;;;8.73;6.30;;;6.00;33.90;;;;;;5046221;28;20966;-84
2022/03/07 02:47:23;;;;;;;12.13;6.57;;;5.90;33.20;;;;;;5051429;28;20539;-84
2022/03/07 02:49:50;;;;;;;10.17;5.60;;;5.60;33.50;;;;;;5048767;28;20460;-84
2022/03/07 02:52:17;;;;;;;9.50;6.03;;;5.70;34.50;;;;;;5053000;28;20469;-83
2022/03/07 02:54:44;;;;;;;10.43;6.57;;;5.70;33.70;;;;;;5085480;28;20456;-83
2022/03/07 02:57:12;;;;;;;11.60;5.83;;;5.70;34.50;;;;;;5066266;28;20444;-84
2022/03/07 02:59:39;;;;;;;12.20;5.87;;;5.90;34.50;;;;;;5066114;28;20829;-84
2022/03/07 03:02:06;;;;;;;12.90;7.23;;;5.90;33.90;;;;;;5084135;28;20471;-84
2022/03/07 03:04:34;;;;;;;12.60;7.00;;;5.80;33.50;;;;;;5047273;28;20460;-85
2022/03/07 03:07:01;;;;;;;12.37;7.60;;;5.70;33.20;;;;;;5067767;28;20456;-83
2022/03/07 03:09:28;;;;;;;7.43;5.73;;;5.60;33.50;;;;;;5051366;28;20469;-84
2022/03/07 03:11:55;;;;;;;8.27;5.53;;;5.50;32.90;;;;;;5055007;28;20986;-84
2022/03/07 03:14:24;;;;;;;10.30;6.03;;;5.00;32.90;;;;;;5066677;28;20455;-84
2022/03/07 03:16:50;;;;;;;7.27;4.97;;;4.90;34.00;;;;;;5065483;28;20467;-84
2022/03/07 03:19:17;;;;;;;10.10;5.83;;;5.00;34.40;;;;;;5055900;28;20535;-83
2022/03/07 03:21:44;;;;;;;8.60;5.90;;;4.80;33.10;;;;;;5066365;28;20475;-84
2022/03/07 03:24:12;;;;;;;10.10;5.77;;;4.90;34.20;;;;;;5045874;28;20942;-84
2022/03/07 03:26:38;;;;;;;11.43;6.63;;;4.90;33.70;;;;;;5068899;28;20989;-84
2022/03/07 03:29:05;;;;;;;11.00;6.73;;;4.90;33.60;;;;;;5052171;28;20456;-85
2022/03/07 03:31:34;;;;;;;12.47;6.33;;;4.80;33.60;;;;;;5085656;28;20486;-85
2022/03/07 03:34:00;;;;;;;11.37;6.53;;;4.60;33.10;;;;;;5056985;28;20471;-84
2022/03/07 03:36:27;;;;;;;11.60;6.23;;;4.70;34.40;;;;;;5083521;28;20471;-84
2022/03/07 03:38:54;;;;;;;9.40;6.77;;;4.80;33.80;;;;;;5064654;28;20455;-84
2022/03/07 03:41:21;;;;;;;11.00;5.00;;;4.80;34.20;;;;;;5048868;28;20480;-85
2022/03/07 03:43:48;;;;;;;9.03;6.53;;;5.00;33.80;;;;;;5067396;28;20457;-85
2022/03/07 03:46:15;;;;;;;12.77;6.90;;;4.80;33.30;;;;;;5066013;28;20454;-86
2022/03/07 03:48:43;;;;;;;11.80;6.00;;;4.90;33.30;;;;;;5067044;28;20981;-84
2022/03/07 03:51:10;;;;;;;7.60;5.53;;;4.60;32.90;;;;;;5081240;28;20470;-85
2022/03/07 03:53:37;;;;;;;11.17;5.73;;;4.70;33.40;;;;;;5066659;28;20463;-86
2022/03/07 03:56:04;;;;;;;10.20;5.70;;;4.70;33.20;;;;;;5082429;28;20486;-84
2022/03/07 03:58:31;;;;;;;9.30;5.03;;;4.40;32.60;;;;;;5065405;28;20458;-86
2022/03/07 04:00:58;;;;;;;8.60;5.20;;;4.50;33.00;;;;;;5080388;28;20486;-85
2022/03/07 04:03:26;;;;;;;8.70;5.47;;;4.60;33.70;;;;;;5083773;28;20737;-84
2022/03/07 04:05:55;;;;;;;7.33;5.83;;;4.60;32.80;;;;;;5046890;28;21009;-84
2022/03/07 04:08:22;;;;;;;9.83;5.17;;;4.70;32.90;;;;;;5064182;28;20459;-85
2022/03/07 04:10:49;;;;;;;10.87;5.93;;;5.00;33.00;;;;;;5024824;28;20567;-85
2022/03/07 04:13:16;;;;;;;9.00;6.43;;;4.80;32.40;;;;;;5065018;28;20451;-86
2022/03/07 04:15:43;;;;;;;10.33;5.63;;;4.90;33.00;;;;;;5065732;28;21003;-85
2022/03/07 04:18:10;;;;;;;11.60;6.20;;;5.00;32.80;;;;;;5038751;28;20942;-85
2022/03/07 04:20:37;;;;;;;9.70;5.00;;;5.00;32.50;;;;;;5065407;28;20468;-85
2022/03/07 04:23:05;;;;;;;10.10;6.13;;;5.20;33.10;;;;;;5062752;28;20444;-85
2022/03/07 04:25:33;;;;;;;9.00;6.13;;;5.00;32.50;;;;;;5064529;28;20458;-85
2022/03/07 04:28:00;;;;;;;8.40;5.20;;;5.00;32.80;;;;;;5046657;28;20526;-86
2022/03/07 04:30:27;;;;;;;8.20;4.80;;;4.90;33.00;;;;;;5065003;28;20711;-85
2022/03/07 04:32:54;;;;;;;9.33;5.77;;;5.00;33.60;;;;;;5083584;28;20870;-86
2022/03/07 04:35:21;;;;;;;10.33;5.63;;;5.10;33.70;;;;;;5064421;28;20452;-85
2022/03/07 04:37:48;;;;;;;8.80;5.70;;;5.20;33.50;;;;;;5048077;28;20470;-85
2022/03/07 04:40:18;;;;;;;9.90;5.40;;;5.30;33.80;;;;;;5063818;28;20998;-85
2022/03/07 04:42:46;;;;;;;9.63;6.57;;;5.50;33.60;;;;;;5054856;28;20459;-85
2022/03/07 04:45:14;;;;;;;7.30;4.90;;;5.20;32.70;;;;;;5082648;28;20467;-85
2022/03/07 04:47:41;;;;;;;6.97;5.30;;;5.20;33.20;;;;;;5064540;28;20452;-82
2022/03/07 04:50:09;;;;;;;6.40;4.53;;;5.30;33.90;;;;;;5034504;28;20979;-84
2022/03/07 04:52:37;;;;;;;9.93;6.03;;;5.40;34.20;;;;;;5063590;28;20455;-85
2022/03/07 04:55:05;;;;;;;8.30;5.83;;;5.30;33.10;;;;;;5081891;28;20453;-83
2022/03/07 04:57:33;;;;;;;7.10;5.50;;;5.40;33.80;;;;;;5064860;28;20775;-85
2022/03/07 05:00:00;;;;;;;11.40;6.13;;;5.50;34.20;;;;;;5063397;28;22042;-85
2022/03/07 05:02:27;;;;;;;9.03;5.97;;;5.50;33.60;;;;;;5083513;28;20994;-84
2022/03/07 05:04:54;;;;;;;10.50;5.90;;;5.60;34.10;;;;;;5046238;28;20470;-86
2022/03/07 05:07:21;;;;;;;14.70;6.93;;;5.50;34.30;;;;;;5047911;28;20459;-83
2022/03/07 05:09:48;;;;;;;11.83;6.47;;;5.60;34.40;;;;;;5065364;28;20829;-85
2022/03/07 05:12:15;;;;;;;12.90;6.23;;;5.50;34.20;;;;;;5081881;28;21253;-85
2022/03/07 05:14:43;;;;;;;8.57;6.00;;;5.50;34.80;;;;;;5055597;28;21037;-85
2022/03/07 05:17:10;;;;;;;9.97;6.90;;;5.50;34.30;;;;;;5054715;28;20440;-85
2022/03/07 05:19:37;;;;;;;7.83;5.77;;;5.50;34.50;;;;;;5056679;28;20459;-85
2022/03/07 05:22:04;;;;;;;9.80;6.00;;;5.60;34.40;;;;;;5051028;28;20471;-86
2022/03/07 05:24:31;;;;;;;9.17;5.97;;;5.40;34.00;;;;;;5063473;28;20463;-85
2022/03/07 05:26:58;;;;;;;14.43;7.73;;;5.40;34.60;;;;;;5064436;28;20459;-85
2022/03/07 05:29:25;;;;;;;9.30;7.30;;;5.40;34.40;;;;;;5063817;28;22018;-86
2022/03/07 05:31:53;;;;;;;15.27;9.67;;;5.50;34.50;;;;;;5062844;28;20479;-86
2022/03/07 05:34:20;;;;;;;13.97;9.03;;;5.30;33.70;;;;;;5062224;28;21005;-85
2022/03/07 05:36:47;;;;;;;24.13;15.43;;;5.40;34.10;;;;;;5082165;28;20487;-86
2022/03/07 05:39:14;;;;;;;36.93;16.37;;;5.50;34.20;;;;;;5079762;28;20466;-87
2022/03/07 05:41:41;;;;;;;28.70;13.43;;;5.50;33.90;;;;;;5059555;28;20469;-85
2022/03/07 05:44:08;;;;;;;39.10;16.07;;;5.50;34.10;;;;;;5054070;28;20464;-86
2022/03/07 05:46:35;;;;;;;24.40;12.60;;;5.40;34.00;;;;;;5074092;28;20459;-87
2022/03/07 05:49:03;;;;;;;19.90;12.40;;;5.40;34.30;;;;;;5064747;28;20451;-85
2022/03/07 05:51:31;;;;;;;21.17;11.60;;;5.40;34.30;;;;;;5061008;28;20480;-86
2022/03/07 05:53:58;;;;;;;26.80;11.40;;;5.30;35.00;;;;;;5046931;28;20459;-85
2022/03/07 05:56:25;;;;;;;24.37;12.37;;;5.30;35.10;;;;;;5037922;28;20451;-87
2022/03/07 05:58:52;;;;;;;54.03;22.40;;;5.40;35.10;;;;;;5061741;28;20462;-88
2022/03/07 06:01:19;;;;;;;26.97;12.50;;;5.40;35.20;;;;;;5044151;28;20849;-87
2022/03/07 06:03:46;;;;;;;20.03;12.77;;;5.50;34.80;;;;;;5054892;28;20482;-88
2022/03/07 06:06:14;;;;;;;14.37;8.67;;;5.40;35.00;;;;;;5068034;28;20459;-85
2022/03/07 06:08:41;;;;;;;11.70;8.07;;;5.40;35.60;;;;;;5062237;28;20984;-85
2022/03/07 06:11:08;;;;;;;25.50;11.53;;;5.40;35.50;;;;;;5052187;28;20470;-87
2022/03/07 06:13:35;;;;;;;18.97;8.60;;;5.30;35.70;;;;;;5062174;28;20455;-87
2022/03/07 06:16:02;;;;;;;9.97;6.20;;;5.30;35.30;;;;;;5063160;28;20456;-88
2022/03/07 06:18:30;;;;;;;17.20;9.90;;;5.20;34.90;;;;;;5054450;28;20837;-88
2022/03/07 06:20:57;;;;;;;17.47;10.43;;;5.10;35.00;;;;;;5041312;28;20515;-87
2022/03/07 06:23:25;;;;;;;11.40;7.43;;;5.10;36.00;;;;;;5064138;28;21419;-88
2022/03/07 06:25:52;;;;;;;17.73;9.90;;;5.20;35.90;;;;;;5064252;28;20470;-87
2022/03/07 06:28:19;;;;;;;20.63;12.30;;;5.00;35.50;;;;;;5078482;28;20498;-87
2022/03/07 06:30:47;;;;;;;33.40;16.63;;;5.00;35.80;;;;;;5065563;28;20475;-90
2022/03/07 06:33:14;;;;;;;19.67;11.00;;;5.10;35.30;;;;;;5072206;28;20451;-90
2022/03/07 06:35:42;;;;;;;13.30;7.90;;;5.10;35.50;;;;;;5068360;28;20465;-87
2022/03/07 06:38:09;;;;;;;16.00;10.37;;;4.90;35.10;;;;;;5067307;28;20794;-87
2022/03/07 06:40:37;;;;;;;9.07;6.40;;;5.00;35.60;;;;;;5063813;28;20471;-88
2022/03/07 06:43:04;;;;;;;8.23;5.80;;;5.00;35.30;;;;;;5061466;28;20460;-86
2022/03/07 06:45:31;;;;;;;13.10;6.77;;;4.70;34.40;;;;;;5076134;28;20483;-88
2022/03/07 06:47:59;;;;;;;11.00;7.43;;;4.60;35.10;;;;;;5046535;28;21076;-88
2022/03/07 06:50:26;;;;;;;11.20;7.17;;;4.60;35.10;;;;;;5043364;28;20669;-87
2022/03/07 06:52:54;;;;;;;13.47;7.70;;;4.50;35.30;;;;;;5060192;28;20586;-88
2022/03/07 06:55:21;;;;;;;9.30;6.40;;;4.60;35.30;;;;;;5045062;28;20448;-88
2022/03/07 06:57:49;;;;;;;7.83;5.13;;;4.70;34.70;;;;;;5062085;28;20458;-86
2022/03/07 07:00:17;;;;;;;13.80;8.13;;;4.50;33.90;;;;;;5079482;28;20481;-86
2022/03/07 07:02:45;;;;;;;8.53;6.07;;;4.50;35.00;;;;;;5079755;28;20501;-87
2022/03/07 07:05:13;;;;;;;11.60;6.87;;;4.60;34.70;;;;;;5059925;28;21055;-88
2022/03/07 07:07:41;;;;;;;12.17;5.27;;;4.70;34.00;;;;;;5079153;28;20455;-88
2022/03/07 07:10:09;;;;;;;10.70;6.97;;;4.60;33.20;;;;;;5053834;28;20484;-87
2022/03/07 07:12:36;;;;;;;10.43;5.60;;;4.60;33.40;;;;;;5044568;28;20458;-85
2022/03/07 07:15:07;;;;;;;7.53;4.97;;;4.60;32.80;;;;;;5065258;28;20451;-87
2022/03/07 07:17:34;;;;;;;8.30;4.93;;;4.70;32.50;;;;;;5062408;28;20458;-88
2022/03/07 07:20:01;;;;;;;6.37;4.80;;;4.40;32.20;;;;;;5062365;28;20974;-88
2022/03/07 07:22:28;;;;;;;7.80;4.90;;;4.50;32.70;;;;;;5060107;28;21135;-87
2022/03/07 07:24:55;;;;;;;7.03;5.10;;;4.70;33.00;;;;;;5062435;28;20454;-87
2022/03/07 07:27:22;;;;;;;8.67;5.50;;;4.90;32.80;;;;;;5063906;28;20470;-87
2022/03/07 07:29:50;;;;;;;9.63;6.30;;;5.10;32.80;;;;;;5081948;28;20463;-87
2022/03/07 07:32:18;;;;;;;8.97;5.20;;;5.20;32.30;;;;;;5081607;28;20474;-85
2022/03/07 07:34:45;;;;;;;11.57;8.17;;;5.20;32.40;;;;;;5081407;28;20460;-86
2022/03/07 07:37:12;;;;;;;9.63;6.23;;;4.60;31.70;;;;;;5064332;28;20463;-87
2022/03/07 07:39:39;;;;;;;8.03;5.00;;;4.60;32.80;;;;;;5045229;28;20478;-86
2022/03/07 07:42:06;;;;;;;6.93;5.03;;;4.60;33.00;;;;;;5081344;28;20566;-87
2022/03/07 07:44:39;;;;;;;5.50;4.50;;;4.70;32.50;;;;;;5062853;28;20488;-86
2022/03/07 07:47:07;;;;;;;6.93;4.90;;;4.70;32.30;;;;;;5062198;28;20439;-86
2022/03/07 07:49:35;;;;;;;2.50;2.00;;;4.60;32.60;;;;;;5058613;28;20442;-87
2022/03/07 07:52:03;;;;;;;6.00;4.50;;;4.40;32.30;;;;;;5078655;28;20466;-86
2022/03/07 07:54:31;;;;;;;7.00;4.33;;;4.40;32.90;;;;;;5043699;28;20946;-86
2022/03/07 07:56:58;;;;;;;5.23;4.23;;;4.70;33.00;;;;;;5078720;28;20533;-86
2022/03/07 07:59:25;;;;;;;5.67;4.30;;;4.80;32.80;;;;;;5048192;28;20769;-86
2022/03/07 08:01:52;;;;;;;8.73;4.40;;;4.60;32.50;;;;;;5062341;28;20581;-85
2022/03/07 08:04:19;;;;;;;7.03;4.10;;;4.40;33.10;;;;;;5079721;28;20470;-84
2022/03/07 08:06:47;;;;;;;5.87;3.80;;;4.30;33.30;;;;;;5061978;28;20860;-85
2022/03/07 08:09:15;;;;;;;4.70;4.03;;;4.00;33.40;;;;;;5064773;28;20475;-86
2022/03/07 08:11:42;;;;;;;4.80;3.17;;;4.10;33.20;;;;;;5084782;28;20475;-86
2022/03/07 08:14:09;;;;;;;5.57;4.03;;;4.10;33.20;;;;;;5064381;28;20992;-86
2022/03/07 08:16:36;;;;;;;8.30;4.60;;;4.20;33.70;;;;;;5031973;28;20474;-85
2022/03/07 08:19:03;;;;;;;7.03;4.43;;;4.20;33.50;;;;;;5085084;28;20451;-86
2022/03/07 08:21:30;;;;;;;6.20;4.97;;;4.40;33.70;;;;;;5066716;28;20479;-86
2022/03/07 08:24:00;;;;;;;9.43;4.60;;;4.80;33.10;;;;;;5044927;28;20936;-85
2022/03/07 08:26:27;;;;;;;6.73;5.33;;;4.70;32.30;;;;;;5055365;28;20466;-85
2022/03/07 08:28:54;;;;;;;6.33;4.70;;;4.60;32.80;;;;;;5081749;28;20459;-84
2022/03/07 08:31:21;;;;;;;9.13;4.93;;;4.70;32.60;;;;;;5066132;28;20475;-85
2022/03/07 08:33:48;;;;;;;8.33;5.33;;;4.80;32.90;;;;;;5064780;28;20893;-85
2022/03/07 08:36:15;;;;;;;4.60;3.70;;;4.90;32.90;;;;;;5048023;28;20467;-85
2022/03/07 08:38:42;;;;;;;5.57;3.70;;;5.10;32.20;;;;;;5036947;28;20950;-84
2022/03/07 08:41:10;;;;;;;6.20;4.00;;;5.10;32.50;;;;;;5031369;28;20550;-85
2022/03/07 08:43:37;;;;;;;5.00;4.50;;;5.10;32.50;;;;;;5053465;28;21115;-85
2022/03/07 08:46:04;;;;;;;5.13;4.60;;;5.00;32.10;;;;;;5081958;28;20506;-85
2022/03/07 08:48:31;;;;;;;5.30;3.90;;;5.10;32.60;;;;;;5082204;28;20451;-85
2022/03/07 08:50:58;;;;;;;7.37;4.87;;;5.20;33.00;;;;;;5049417;28;20986;-86
2022/03/07 08:53:25;;;;;;;13.57;7.10;;;5.00;32.40;;;;;;5063691;28;20454;-85
2022/03/07 08:55:52;;;;;;;11.83;5.13;;;5.00;33.00;;;;;;5063531;28;20447;-85
2022/03/07 08:58:20;;;;;;;5.87;4.90;;;5.00;32.40;;;;;;5064177;28;20493;-85
2022/03/07 09:00:47;;;;;;;5.50;3.90;;;5.10;32.70;;;;;;5060629;28;20463;-86
2022/03/07 09:03:14;;;;;;;10.20;5.93;;;5.10;31.90;;;;;;5062086;28;21135;-84
2022/03/07 09:05:41;;;;;;;5.40;4.90;;;5.00;32.00;;;;;;5038516;28;20460;-83
2022/03/07 09:08:08;;;;;;;7.13;4.80;;;5.00;32.30;;;;;;5063530;28;20466;-85
2022/03/07 09:10:35;;;;;;;5.03;4.07;;;5.10;32.50;;;;;;5043330;28;20480;-85
2022/03/07 09:13:02;;;;;;;4.90;4.37;;;4.90;32.30;;;;;;5063384;28;20440;-86
2022/03/07 09:15:31;;;;;;;5.33;4.00;;;4.80;32.70;;;;;;5062192;28;20455;-85
2022/03/07 09:17:58;;;;;;;6.30;4.67;;;4.70;32.50;;;;;;5028976;28;20489;-83
2022/03/07 09:20:24;;;;;;;6.23;4.73;;;4.60;32.80;;;;;;5079902;28;20482;-83
2022/03/07 09:22:51;;;;;;;6.10;4.67;;;4.60;33.70;;;;;;5059934;28;20478;-85
2022/03/07 09:25:18;;;;;;;5.70;4.20;;;5.00;33.40;;;;;;5062981;28;20459;-86
2022/03/07 09:27:46;;;;;;;6.40;5.00;;;5.30;33.00;;;;;;5061977;28;20495;-85
2022/03/07 09:30:14;;;;;;;7.73;5.10;;;5.60;33.10;;;;;;5044347;28;20475;-85
2022/03/07 09:32:43;;;;;;;8.47;4.60;;;6.00;33.10;;;;;;5045708;28;20447;-84
2022/03/07 09:35:10;;;;;;;8.43;5.30;;;6.00;31.60;;;;;;5062409;28;20834;-85
2022/03/07 09:37:37;;;;;;;4.90;3.43;;;6.00;32.10;;;;;;5064728;28;20462;-87
2022/03/07 09:40:05;;;;;;;6.90;4.43;;;6.00;31.40;;;;;;5058973;28;20765;-87
2022/03/07 09:42:32;;;;;;;5.30;4.73;;;5.60;31.60;;;;;;5063108;28;20759;-87
2022/03/07 09:44:59;;;;;;;9.33;4.20;;;5.60;31.60;;;;;;5080796;28;20508;-86
2022/03/07 09:47:28;;;;;;;6.33;4.53;;;5.50;31.60;;;;;;5045322;28;20440;-85
2022/03/07 09:49:56;;;;;;;6.50;4.80;;;5.30;31.50;;;;;;5060559;28;20467;-84
2022/03/07 09:52:23;;;;;;;4.30;3.70;;;5.50;31.60;;;;;;5082845;28;21106;-86
2022/03/07 09:54:50;;;;;;;9.77;5.13;;;5.50;31.30;;;;;;5043979;28;20448;-86
2022/03/07 09:57:17;;;;;;;5.93;4.67;;;5.60;32.00;;;;;;5064493;28;20447;-86
2022/03/07 09:59:44;;;;;;;6.30;4.80;;;5.80;31.60;;;;;;5048744;28;20461;-86
2022/03/07 10:02:14;;;;;;;6.90;4.63;;;6.00;31.50;;;;;;5063081;28;20562;-86
2022/03/07 10:04:43;;;;;;;9.23;4.90;;;6.10;31.80;;;;;;5062482;28;20455;-85
2022/03/07 10:07:11;;;;;;;7.33;5.20;;;6.30;31.30;;;;;;5064989;28;20448;-85
2022/03/07 10:09:39;;;;;;;6.10;4.37;;;6.70;31.20;;;;;;5062367;28;20482;-86
2022/03/07 10:12:06;;;;;;;6.00;4.27;;;7.00;30.80;;;;;;5084739;28;20754;-86
2022/03/07 10:14:42;;;;;;;8.97;5.50;;;6.80;29.90;;;;;;5050585;28;20455;-86
2022/03/07 10:17:20;;;;;;;4.53;4.13;;;6.50;30.10;;;;;;5041066;28;20459;-86
2022/03/07 10:19:48;;;;;;;5.07;3.70;;;6.40;30.20;;;;;;5032435;28;20889;-87
2022/03/07 10:22:21;;;;;;;6.23;4.43;;;6.40;30.80;;;;;;5066832;28;21255;-86
2022/03/07 10:24:48;;;;;;;7.17;5.20;;;6.50;31.00;;;;;;5063555;28;20497;-85
2022/03/07 10:27:25;;;;;;;5.23;4.70;;;6.70;30.90;;;;;;5084253;28;21005;-87
2022/03/07 10:29:52;;;;;;;4.53;3.73;;;6.90;30.70;;;;;;5055824;28;20459;-83
2022/03/07 10:32:19;;;;;;;6.77;4.83;;;6.70;30.20;;;;;;5054564;28;20454;-84
2022/03/07 10:34:46;;;;;;;10.33;5.23;;;6.40;30.90;;;;;;5083274;28;20455;-85
2022/03/07 10:37:13;;;;;;;8.23;5.23;;;6.30;32.10;;;;;;5050588;28;21207;-86
2022/03/07 10:39:50;;;;;;;6.37;4.17;;;6.30;32.00;;;;;;5021824;28;20444;-83
2022/03/07 10:42:18;;;;;;;6.40;4.97;;;6.50;31.90;;;;;;5047647;28;20471;-87
2022/03/07 10:44:45;;;;;;;8.60;5.40;;;6.60;32.00;;;;;;5084814;28;20466;-87
2022/03/07 10:47:14;;;;;;;8.90;5.50;;;6.90;31.40;;;;;;5050036;28;20823;-87
2022/03/07 10:49:50;;;;;;;8.07;4.97;;;6.70;31.30;;;;;;5046006;28;20474;-83
2022/03/07 10:52:17;;;;;;;6.90;4.80;;;6.40;32.10;;;;;;5070270;28;20458;-85
2022/03/07 10:54:44;;;;;;;8.33;5.43;;;6.40;32.10;;;;;;5065961;28;20456;-85
2022/03/07 10:57:14;;;;;;;6.67;5.50;;;6.40;32.30;;;;;;5065609;28;20455;-84
2022/03/07 10:59:41;;;;;;;9.13;5.17;;;6.70;32.90;;;;;;5082116;28;20447;-83
2022/03/07 11:02:10;;;;;;;8.80;4.60;;;6.80;32.20;;;;;;5066680;28;21015;-86
2022/03/07 11:04:38;;;;;;;9.03;6.57;;;6.90;32.20;;;;;;5039593;28;20454;-86
2022/03/07 11:07:06;;;;;;;7.60;5.10;;;7.30;32.30;;;;;;5064303;28;20471;-85
2022/03/07 11:09:33;;;;;;;6.43;4.97;;;7.30;31.50;;;;;;5051300;28;20460;-86
2022/03/07 11:12:00;;;;;;;9.60;5.87;;;7.30;31.60;;;;;;5049428;28;20999;-85
2022/03/07 11:14:29;;;;;;;7.60;5.53;;;7.20;31.50;;;;;;5050090;28;20792;-86
2022/03/07 11:16:58;;;;;;;6.50;5.40;;;7.20;32.00;;;;;;5063790;28;20569;-85
2022/03/07 11:19:26;;;;;;;10.83;5.07;;;7.20;32.30;;;;;;5049558;28;20915;-85
2022/03/07 11:21:56;;;;;;;7.70;5.17;;;7.10;32.40;;;;;;5066403;28;20478;-85
2022/03/07 11:24:26;;;;;;;10.37;5.93;;;7.00;33.20;;;;;;5067975;28;21005;-87
2022/03/07 11:26:55;;;;;;;10.30;6.60;;;7.20;32.80;;;;;;5064499;28;20525;-86
2022/03/07 11:29:35;;;;;;;9.20;6.60;;;7.00;32.50;;;;;;5062478;28;20451;-86
2022/03/07 11:32:04;;;;;;;11.30;6.37;;;6.70;33.40;;;;;;5083544;28;20905;-86
2022/03/07 11:34:31;;;;;;;7.93;6.20;;;6.80;33.70;;;;;;5065828;28;20444;-86
2022/03/07 11:36:58;;;;;;;11.10;6.47;;;6.70;33.70;;;;;;5049245;28;20440;-86
2022/03/07 11:39:32;;;;;;;8.80;6.00;;;6.80;33.30;;;;;;5083263;28;20459;-86
2022/03/07 11:42:10;;;;;;;9.90;6.30;;;6.70;33.50;;;;;;5063244;28;20471;-86
2022/03/07 11:44:40;;;;;;;9.23;5.20;;;6.60;33.70;;;;;;5046530;28;20451;-85
2022/03/07 11:47:12;;;;;;;10.33;6.87;;;6.70;32.70;;;;;;5064473;28;20458;-86
2022/03/07 11:49:40;;;;;;;4.63;4.17;;;6.90;32.80;;;;;;5043942;28;20452;-85
2022/03/07 11:52:09;;;;;;;6.83;4.60;;;6.90;31.60;;;;;;5063658;28;20480;-86
2022/03/07 11:54:49;;;;;;;7.60;5.13;;;7.00;31.90;;;;;;5060960;28;20444;-85
2022/03/07 11:57:17;;;;;;;9.60;6.20;;;6.80;31.20;;;;;;5046082;28;21072;-85
2022/03/07 11:59:46;;;;;;;7.40;6.00;;;7.20;31.80;;;;;;5044284;28;20854;-86
2022/03/07 12:02:13;;;;;;;13.50;6.57;;;7.80;31.30;;;;;;5059565;28;20990;-86
2022/03/07 12:04:41;;;;;;;6.90;5.27;;;8.10;30.00;;;;;;5058679;28;20483;-85
2022/03/07 12:07:08;;;;;;;7.70;5.80;;;8.10;29.80;;;;;;5081052;28;20456;-86
2022/03/07 12:09:37;;;;;;;9.00;5.73;;;8.20;30.20;;;;;;5043834;28;20807;-82
2022/03/07 12:12:06;;;;;;;8.07;5.23;;;8.50;29.50;;;;;;5081506;28;20756;-85
2022/03/07 12:14:35;;;;;;;8.53;5.10;;;8.70;29.30;;;;;;5079363;28;20579;-84
2022/03/07 12:17:12;;;;;;;8.60;6.07;;;8.80;29.10;;;;;;5040743;28;20455;-85
2022/03/07 12:19:39;;;;;;;10.87;6.60;;;8.70;29.40;;;;;;5042421;28;21186;-85
2022/03/07 12:22:11;;;;;;;9.00;6.17;;;8.90;29.50;;;;;;5078695;28;20467;-86
2022/03/07 12:24:39;;;;;;;7.90;5.83;;;9.40;29.20;;;;;;5058683;28;20663;-84
2022/03/07 12:27:07;;;;;;;6.17;5.23;;;9.70;28.00;;;;;;5080668;28;20622;-86
2022/03/07 12:29:34;;;;;;;9.80;6.33;;;9.70;28.30;;;;;;5049477;28;20463;-86
2022/03/07 12:32:05;;;;;;;7.43;6.20;;;9.70;28.20;;;;;;5065349;28;20490;-86
2022/03/07 12:34:34;;;;;;;9.20;6.80;;;9.50;27.90;;;;;;5064170;28;20481;-86
2022/03/07 12:37:03;;;;;;;8.07;5.60;;;9.30;28.50;;;;;;5051687;28;20460;-85
2022/03/07 12:39:33;;;;;;;11.30;6.73;;;9.30;28.90;;;;;;5050361;28;20452;-86
2022/03/07 12:42:01;;;;;;;8.87;6.50;;;9.40;28.20;;;;;;5044894;28;20467;-85
2022/03/07 12:44:28;;;;;;;8.47;5.43;;;9.80;28.40;;;;;;5081960;28;20561;-86
2022/03/07 12:46:55;;;;;;;9.93;7.27;;;10.20;27.20;;;;;;5048720;28;20467;-86
2022/03/07 12:49:23;;;;;;;9.30;6.17;;;10.20;26.50;;;;;;5082198;28;20452;-87
2022/03/07 12:51:50;;;;;;;8.87;5.83;;;10.30;26.40;;;;;;5062087;28;20463;-84
2022/03/07 12:54:26;;;;;;;10.53;6.57;;;10.30;26.20;;;;;;5047884;28;20444;-85
2022/03/07 12:56:53;;;;;;;25.90;7.57;;;10.10;26.20;;;;;;5061482;28;20483;-86